createdAt,value
2023-04-03T00:03:00.582Z,79.30
2023-04-03T00:06:04.176Z,79.20
2023-04-03T00:09:07.654Z,79.30
2023-04-03T00:12:12.096Z,79.20
2023-04-03T00:15:14.380Z,79.10
2023-04-03T00:18:16.726Z,79.10
2023-04-03T00:21:18.991Z,79.10
2023-04-03T00:24:21.261Z,79.10
2023-04-03T00:27:23.604Z,79.00
2023-04-03T00:30:26.139Z,78.90
2023-04-03T00:33:29.527Z,78.90
2023-04-03T00:36:31.994Z,78.90
2023-04-03T00:39:34.283Z,78.90
2023-04-03T00:42:38.711Z,78.80
2023-04-03T00:45:44.040Z,78.70
2023-04-03T00:48:48.674Z,78.70
2023-04-03T00:51:51.020Z,78.60
2023-04-03T00:54:58.048Z,78.50
2023-04-03T00:58:01.600Z,78.50
2023-04-03T01:01:09.435Z,78.50
2023-04-03T01:04:37.266Z,78.40
2023-04-03T01:07:40.575Z,78.40
2023-04-03T01:10:42.885Z,78.20
2023-04-03T01:13:45.587Z,78.10
2023-04-03T01:16:55.010Z,78.10
2023-04-03T01:20:38.272Z,78.10
2023-04-03T01:23:48.796Z,78.10
2023-04-03T01:26:51.690Z,77.90
2023-04-03T01:29:54.045Z,77.80
2023-04-03T01:32:56.314Z,77.80
2023-04-03T01:35:58.741Z,77.70
2023-04-03T01:39:01.731Z,77.70
2023-04-03T01:42:05.636Z,77.70
2023-04-03T01:45:13.449Z,77.60
2023-04-03T01:48:16.666Z,77.60
2023-04-03T01:51:19.054Z,77.60
2023-04-03T01:54:21.464Z,77.60
2023-04-03T01:57:23.711Z,77.70
2023-04-03T02:00:26.048Z,77.50
2023-04-03T02:03:28.975Z,77.60
2023-04-03T02:06:31.365Z,77.60
2023-04-03T02:09:33.734Z,77.50
2023-04-03T02:12:36.220Z,77.50
2023-04-03T02:15:41.718Z,77.50
2023-04-03T02:18:44.248Z,77.50
2023-04-03T02:21:46.611Z,77.50
2023-04-03T02:24:50.930Z,77.50
2023-04-03T02:27:53.157Z,77.50
2023-04-03T02:30:55.528Z,77.50
2023-04-03T02:33:58.077Z,77.50
2023-04-03T02:37:00.394Z,77.40
2023-04-03T02:40:02.770Z,77.30
2023-04-03T02:43:05.196Z,77.30
2023-04-03T02:46:08.222Z,77.20
2023-04-03T02:49:11.073Z,77.30
2023-04-03T02:52:16.540Z,77.30
2023-04-03T02:55:18.967Z,77.20
2023-04-03T02:58:24.525Z,77.10
2023-04-03T03:01:32.568Z,77.10
2023-04-03T03:04:35.143Z,77.10
2023-04-03T03:07:37.358Z,77.10
2023-04-03T03:10:39.811Z,77.00
2023-04-03T03:13:43.373Z,77.00
2023-04-03T03:16:45.717Z,77.70
2023-04-03T03:19:48.089Z,76.90
2023-04-03T03:22:50.459Z,76.90
2023-04-03T03:26:00.950Z,76.90
2023-04-03T03:29:03.727Z,77.60
2023-04-03T03:32:06.059Z,76.80
2023-04-03T03:35:08.692Z,76.70
2023-04-03T03:38:11.141Z,76.70
2023-04-03T03:41:13.876Z,76.60
2023-04-03T03:44:17.981Z,76.70
2023-04-03T03:47:20.397Z,76.60
2023-04-03T03:50:22.970Z,76.50
2023-04-03T03:53:25.895Z,76.50
2023-04-03T03:56:32.069Z,76.40
2023-04-03T03:59:34.496Z,76.40
2023-04-03T04:02:37.089Z,76.30
2023-04-03T04:05:40.131Z,76.20
2023-04-03T04:08:43.277Z,76.10
2023-04-03T04:11:47.424Z,76.10
2023-04-03T04:14:51.673Z,76.10
2023-04-03T04:17:54.656Z,75.90
2023-04-03T04:20:57.700Z,75.90
2023-04-03T04:24:00.671Z,75.70
2023-04-03T04:27:03.224Z,75.60
2023-04-03T04:30:08.109Z,75.70
2023-04-03T04:33:11.264Z,75.60
2023-04-03T04:36:16.070Z,75.60
2023-04-03T04:39:20.845Z,75.70
2023-04-03T04:42:23.299Z,75.60
2023-04-03T04:45:26.335Z,75.60
2023-04-03T04:48:29.562Z,75.50
2023-04-03T04:51:40.927Z,75.50
2023-04-03T04:54:47.647Z,74.70
2023-04-03T04:57:50.040Z,74.10
2023-04-03T05:01:03.772Z,74.10
2023-04-03T05:04:07.842Z,74.10
2023-04-03T05:07:10.486Z,74.00
2023-04-03T05:10:13.690Z,74.10
2023-04-03T05:13:16.665Z,74.20
2023-04-03T05:16:19.220Z,74.20
2023-04-03T05:19:22.729Z,74.30
2023-04-03T05:22:25.030Z,74.20
2023-04-03T05:25:30.657Z,74.30
2023-04-03T05:28:33.227Z,74.30
2023-04-03T05:31:36.100Z,75.10
2023-04-03T05:34:39.211Z,74.30
2023-04-03T05:37:42.031Z,74.20
2023-04-03T05:40:44.853Z,74.20
2023-04-03T05:43:47.236Z,74.30
2023-04-03T05:46:50.085Z,74.20
2023-04-03T05:49:52.613Z,74.20
2023-04-03T05:52:59.979Z,74.30
2023-04-03T05:56:05.190Z,74.30
2023-04-03T05:59:12.975Z,74.30
2023-04-03T06:02:21.754Z,74.30
2023-04-03T06:05:25.102Z,74.30
2023-04-03T06:08:27.382Z,74.40
2023-04-03T06:11:29.746Z,74.40
2023-04-03T06:14:32.058Z,74.40
2023-04-03T06:17:34.273Z,74.40
2023-04-03T06:20:36.934Z,74.40
2023-04-03T06:23:39.652Z,74.50
2023-04-03T06:26:41.972Z,74.50
2023-04-03T06:29:46.154Z,74.40
2023-04-03T06:32:48.352Z,74.50
2023-04-03T06:35:50.826Z,74.70
2023-04-03T06:38:53.099Z,74.80
2023-04-03T06:41:55.277Z,74.80
2023-04-03T06:45:06.369Z,74.80
2023-04-03T06:48:08.766Z,74.90
2023-04-03T06:51:21.821Z,75.00
2023-04-03T06:54:24.162Z,75.00
2023-04-03T06:57:26.795Z,75.10
2023-04-03T07:00:29.554Z,75.20
2023-04-03T07:03:32.386Z,75.30
2023-04-03T07:06:36.361Z,75.40
2023-04-03T07:09:38.768Z,75.50
2023-04-03T07:12:41.173Z,75.50
2023-04-03T07:15:43.449Z,75.50
2023-04-03T07:18:46.804Z,75.50
2023-04-03T07:21:49.305Z,75.60
2023-04-03T07:24:51.847Z,75.70
2023-04-03T07:27:55.596Z,75.70
2023-04-03T07:31:24.199Z,75.80
2023-04-03T07:34:26.642Z,75.90
2023-04-03T07:37:29.108Z,75.90
2023-04-03T07:40:31.320Z,75.90
2023-04-03T07:43:33.966Z,76.00
2023-04-03T07:46:36.301Z,76.10
2023-04-03T07:49:40.848Z,76.10
2023-04-03T07:52:43.265Z,76.00
2023-04-03T07:55:48.509Z,75.90
2023-04-03T07:58:50.790Z,75.80
2023-04-03T08:01:53.012Z,75.80
2023-04-03T08:04:55.297Z,75.90
2023-04-03T08:07:57.509Z,75.80
2023-04-03T08:11:01.595Z,75.70
2023-04-03T08:14:03.878Z,75.80
2023-04-03T08:17:06.648Z,75.60
2023-04-03T08:20:11.139Z,75.60
2023-04-03T08:23:13.500Z,75.70
2023-04-03T08:26:17.769Z,75.60
2023-04-03T08:29:20.025Z,75.60
2023-04-03T08:32:22.254Z,75.40
2023-04-03T08:35:24.444Z,75.90
2023-04-03T08:38:26.825Z,75.10
2023-04-03T08:41:36.899Z,75.00
2023-04-03T08:44:43.378Z,74.80
2023-04-03T08:48:06.971Z,74.80
2023-04-03T08:51:18.297Z,74.60
2023-04-03T08:54:34.030Z,75.10
2023-04-03T08:57:43.355Z,74.30
2023-04-03T09:01:05.262Z,74.30
2023-04-03T09:04:21.229Z,73.90
2023-04-03T09:07:34.275Z,74.00
2023-04-03T09:10:40.046Z,73.70
2023-04-03T09:13:58.488Z,73.70
2023-04-03T09:17:04.152Z,73.80
2023-04-03T09:20:20.618Z,73.70
2023-04-03T09:23:32.153Z,73.90
2023-04-03T09:27:13.273Z,73.70
2023-04-03T09:30:26.835Z,73.90
2023-04-03T09:33:31.387Z,74.50
2023-04-03T09:36:45.236Z,73.70
2023-04-03T09:39:56.080Z,73.70
2023-04-03T09:43:02.070Z,73.30
2023-04-03T09:46:24.854Z,73.50
2023-04-03T09:49:28.012Z,73.50
2023-04-03T09:52:30.373Z,73.40
2023-04-03T09:55:32.822Z,73.30
2023-04-03T09:58:50.354Z,73.10
2023-04-03T10:02:03.255Z,73.20
2023-04-03T10:05:26.712Z,73.20
2023-04-03T10:08:38.027Z,73.10
2023-04-03T10:12:06.303Z,73.10
2023-04-03T10:15:18.265Z,73.10
2023-04-03T10:18:50.738Z,73.00
2023-04-03T10:22:01.725Z,72.90
2023-04-03T10:25:22.365Z,72.70
2023-04-03T10:28:39.652Z,72.60
2023-04-03T10:31:57.910Z,72.60
2023-04-03T10:35:14.193Z,72.60
2023-04-03T10:38:31.197Z,72.40
2023-04-03T10:42:17.377Z,72.40
2023-04-03T10:45:55.063Z,72.50
2023-04-03T10:49:16.201Z,72.30
2023-04-03T10:52:39.961Z,72.20
2023-04-03T10:55:51.193Z,72.20
2023-04-03T10:59:19.811Z,72.10
2023-04-03T11:02:37.868Z,72.10
2023-04-03T11:05:51.704Z,72.00
2023-04-03T11:09:11.787Z,71.80
2023-04-03T11:12:49.941Z,71.90
2023-04-03T11:15:55.153Z,71.90
2023-04-03T11:19:15.798Z,71.80
2023-04-03T11:22:40.241Z,71.80
2023-04-03T11:25:45.848Z,71.50
2023-04-03T11:28:53.356Z,71.40
2023-04-03T11:32:20.106Z,71.50
2023-04-03T11:35:23.751Z,71.30
2023-04-03T11:38:37.390Z,71.30
2023-04-03T11:41:39.838Z,71.40
2023-04-03T11:44:42.594Z,71.30
2023-04-03T11:47:51.130Z,71.00
2023-04-03T11:50:54.136Z,71.10
2023-04-03T11:54:42.159Z,71.00
2023-04-03T11:58:08.360Z,71.20
2023-04-03T12:01:12.577Z,71.00
2023-04-03T12:04:17.015Z,70.80
2023-04-03T12:07:21.135Z,70.90
2023-04-03T12:10:31.823Z,70.80
2023-04-03T12:13:35.752Z,70.50
2023-04-03T12:16:40.744Z,70.60
2023-04-03T12:19:45.997Z,70.60
2023-04-03T12:23:24.276Z,70.60
2023-04-03T12:26:59.439Z,70.80
2023-04-03T12:30:05.837Z,70.80
2023-04-03T12:34:00.881Z,70.40
2023-04-03T12:37:18.390Z,70.40
2023-04-03T12:40:37.870Z,70.10
2023-04-03T12:44:00.436Z,70.20
2023-04-03T12:47:49.134Z,70.10
2023-04-03T12:50:51.939Z,70.10
2023-04-03T12:54:01.369Z,70.00
2023-04-03T12:57:25.689Z,69.90
2023-04-03T13:00:34.512Z,70.10
2023-04-03T13:03:41.070Z,69.90
2023-04-03T13:06:45.595Z,69.90
2023-04-03T13:09:57.426Z,69.50
2023-04-03T13:13:09.268Z,69.70
2023-04-03T13:16:12.863Z,69.70
2023-04-03T13:19:19.089Z,69.50
2023-04-03T13:22:27.229Z,69.30
2023-04-03T13:25:32.384Z,69.30
2023-04-03T13:28:36.399Z,69.30
2023-04-03T13:31:40.740Z,69.20
2023-04-03T13:34:47.071Z,69.40
2023-04-03T13:38:01.761Z,69.10
2023-04-03T13:41:29.996Z,69.20
2023-04-03T13:44:36.415Z,69.20
2023-04-03T13:47:44.774Z,68.90
2023-04-03T13:51:13.078Z,68.80
2023-04-03T13:54:40.254Z,69.00
2023-04-03T13:58:00.863Z,68.80
2023-04-03T14:01:21.529Z,68.60
2023-04-03T14:04:30.252Z,68.70
2023-04-03T14:07:32.669Z,68.40
2023-04-03T14:10:34.862Z,68.60
2023-04-03T14:13:37.050Z,68.20
2023-04-03T14:16:46.343Z,68.50
2023-04-03T14:19:49.832Z,68.60
2023-04-03T14:22:52.520Z,68.60
2023-04-03T14:25:56.001Z,68.40
2023-04-03T14:28:58.339Z,68.40
2023-04-03T14:32:13.870Z,68.20
2023-04-03T14:35:18.278Z,68.30
2023-04-03T14:38:27.485Z,68.50
2023-04-03T14:41:29.906Z,68.20
2023-04-03T14:44:32.624Z,68.20
2023-04-03T14:47:38.314Z,68.20
2023-04-03T14:50:42.339Z,68.10
2023-04-03T14:53:50.436Z,68.10
2023-04-03T14:56:54.188Z,68.20
2023-04-03T14:59:56.779Z,68.10
2023-04-03T15:02:59.048Z,69.00
2023-04-03T15:06:01.544Z,68.10
2023-04-03T15:09:04.418Z,68.10
2023-04-03T15:12:06.683Z,68.00
2023-04-03T15:15:09.721Z,66.80
2023-04-03T15:18:24.521Z,66.40
2023-04-03T15:21:26.811Z,66.50
2023-04-03T15:24:28.994Z,66.30
2023-04-03T15:27:31.362Z,66.60
2023-04-03T15:30:43.065Z,66.60
2023-04-03T15:33:45.339Z,66.80
2023-04-03T15:36:47.692Z,66.60
2023-04-03T15:39:49.903Z,66.80
2023-04-03T15:42:54.279Z,66.20
2023-04-03T15:46:00.839Z,66.40
2023-04-03T15:49:03.251Z,66.70
2023-04-03T15:52:05.745Z,66.40
2023-04-03T15:55:08.309Z,66.30
2023-04-03T15:58:12.079Z,66.50
2023-04-03T16:01:14.515Z,66.30
2023-04-03T16:04:18.072Z,66.50
2023-04-03T16:07:22.066Z,66.60
2023-04-03T16:10:24.585Z,66.30
2023-04-03T16:13:27.340Z,66.10
2023-04-03T16:16:29.727Z,66.50
2023-04-03T16:19:32.026Z,66.50
2023-04-03T16:22:34.489Z,66.20
2023-04-03T16:25:36.813Z,66.20
2023-04-03T16:28:39.129Z,66.00
2023-04-03T16:31:42.382Z,66.00
2023-04-03T16:34:45.086Z,66.20
2023-04-03T16:37:47.543Z,66.30
2023-04-03T16:40:50.467Z,66.20
2023-04-03T16:43:52.734Z,66.30
2023-04-03T16:46:54.984Z,66.20
2023-04-03T16:49:57.273Z,66.20
2023-04-03T16:52:59.617Z,66.30
2023-04-03T16:56:01.818Z,66.50
2023-04-03T16:59:04.094Z,66.50
2023-04-03T17:02:06.705Z,66.30
2023-04-03T17:05:09.417Z,66.30
2023-04-03T17:08:11.837Z,66.50
2023-04-03T17:11:14.766Z,66.40
2023-04-03T17:14:17.062Z,66.50
2023-04-03T17:17:24.397Z,66.50
2023-04-03T17:20:26.861Z,66.40
2023-04-03T17:23:29.925Z,66.70
2023-04-03T17:26:32.184Z,66.60
2023-04-03T17:29:34.477Z,66.30
2023-04-03T17:32:38.712Z,66.40
2023-04-03T17:35:41.259Z,66.50
2023-04-03T17:38:43.692Z,66.40
2023-04-03T17:41:46.135Z,66.40
2023-04-03T17:44:48.277Z,66.40
2023-04-03T17:47:52.543Z,66.00
2023-04-03T17:50:54.798Z,66.10
2023-04-03T17:53:57.000Z,65.90
2023-04-03T17:56:59.240Z,66.00
2023-04-03T18:00:01.571Z,65.90
2023-04-03T18:03:04.192Z,65.80
2023-04-03T18:06:08.931Z,65.80
2023-04-03T18:09:21.067Z,65.30
2023-04-03T18:12:23.666Z,65.50
2023-04-03T18:15:26.068Z,65.20
2023-04-03T18:18:28.445Z,65.20
2023-04-03T18:21:30.631Z,65.00
2023-04-03T18:24:36.761Z,64.90
2023-04-03T18:27:39.892Z,64.70
2023-04-03T18:30:43.370Z,64.80
2023-04-03T18:33:46.181Z,64.60
2023-04-03T18:36:49.329Z,64.30
2023-04-03T18:39:51.824Z,64.40
2023-04-03T18:42:54.076Z,64.10
2023-04-03T18:45:56.671Z,64.80
2023-04-03T18:48:59.913Z,64.10
2023-04-03T18:52:02.713Z,63.90
2023-04-03T18:55:06.673Z,63.70
2023-04-03T18:58:09.123Z,63.70
2023-04-03T19:01:12.194Z,63.40
2023-04-03T19:04:14.651Z,63.70
2023-04-03T19:07:16.845Z,63.40
2023-04-03T19:10:20.230Z,62.90
2023-04-03T19:13:22.735Z,63.40
2023-04-03T19:16:25.261Z,63.00
2023-04-03T19:19:27.604Z,63.00
2023-04-03T19:22:30.747Z,62.90
2023-04-03T19:25:33.033Z,62.80
2023-04-03T19:28:35.595Z,62.60
2023-04-03T19:31:38.249Z,62.60
2023-04-03T19:34:40.560Z,62.50
2023-04-03T19:37:42.978Z,62.40
2023-04-03T19:40:45.869Z,62.10
2023-04-03T19:43:50.579Z,62.10
2023-04-03T19:46:53.491Z,61.60
2023-04-03T19:49:55.729Z,61.50
2023-04-03T19:52:58.021Z,61.60
2023-04-03T19:56:01.298Z,61.10
2023-04-03T19:59:03.525Z,61.20
2023-04-03T20:02:06.033Z,61.40
2023-04-03T20:05:08.820Z,61.10
2023-04-03T20:08:11.537Z,61.00
2023-04-03T20:11:14.147Z,60.70
2023-04-03T20:14:17.621Z,60.90
2023-04-03T20:17:19.919Z,61.00
2023-04-03T20:20:22.127Z,60.60
2023-04-03T20:23:25.628Z,60.40
2023-04-03T20:26:31.784Z,60.60
2023-04-03T20:29:36.816Z,60.20
2023-04-03T20:32:39.777Z,60.10
2023-04-03T20:35:42.049Z,60.30
2023-04-03T20:38:44.691Z,60.20
2023-04-03T20:41:46.995Z,60.20
2023-04-03T20:44:50.168Z,59.90
2023-04-03T20:47:54.198Z,60.20
2023-04-03T20:50:57.028Z,60.10
2023-04-03T20:53:59.595Z,60.10
2023-04-03T20:57:02.776Z,60.30
2023-04-03T21:00:07.485Z,60.40
2023-04-03T21:03:10.112Z,60.30
2023-04-03T21:06:50.882Z,60.20
2023-04-03T21:10:30.779Z,60.50
2023-04-03T21:14:10.412Z,60.50
2023-04-03T21:17:12.555Z,60.50
2023-04-03T21:20:14.837Z,60.20
2023-04-03T21:23:17.425Z,60.30
2023-04-03T21:26:24.483Z,60.30
2023-04-03T21:29:26.624Z,60.30
2023-04-03T21:32:28.848Z,60.30
2023-04-03T21:35:31.022Z,60.00
2023-04-03T21:38:35.300Z,60.00
2023-04-03T21:41:37.808Z,60.20
2023-04-03T21:44:41.799Z,60.20
2023-04-03T21:47:44.985Z,60.10
2023-04-03T21:50:50.205Z,60.20
2023-04-03T21:53:53.953Z,60.20
2023-04-03T21:56:56.170Z,60.00
2023-04-03T21:59:58.617Z,59.80
2023-04-03T22:03:09.869Z,59.70
2023-04-03T22:06:15.079Z,59.80
2023-04-03T22:09:17.496Z,59.80
2023-04-03T22:12:19.764Z,59.70
2023-04-03T22:15:22.527Z,59.60
2023-04-03T22:18:24.865Z,59.50
2023-04-03T22:21:27.323Z,59.60
2023-04-03T22:24:29.572Z,59.60
2023-04-03T22:27:31.909Z,59.50
2023-04-03T22:30:34.267Z,59.40
2023-04-03T22:33:36.930Z,59.30
2023-04-03T22:36:39.087Z,59.20
2023-04-03T22:39:41.249Z,59.30
2023-04-03T22:42:46.388Z,59.20
2023-04-03T22:45:49.268Z,59.20
2023-04-03T22:48:52.441Z,59.20
2023-04-03T22:51:54.697Z,58.90
2023-04-03T22:55:01.394Z,58.90
2023-04-03T22:58:08.512Z,59.00
2023-04-03T23:01:12.433Z,58.80
2023-04-03T23:04:14.631Z,58.70
2023-04-03T23:07:17.520Z,58.80
2023-04-03T23:10:20.253Z,58.70
2023-04-03T23:13:23.211Z,58.80
2023-04-03T23:16:25.417Z,58.40
2023-04-03T23:19:27.818Z,58.50
2023-04-03T23:22:30.134Z,58.50
2023-04-03T23:25:32.289Z,58.60
2023-04-03T23:28:34.519Z,58.60
2023-04-03T23:31:36.762Z,58.50
2023-04-03T23:34:38.986Z,58.50
2023-04-03T23:37:41.412Z,58.40
2023-04-03T23:40:44.625Z,58.40
2023-04-03T23:43:47.713Z,58.20
2023-04-03T23:46:49.977Z,58.30
2023-04-03T23:49:52.198Z,58.30
2023-04-03T23:52:54.644Z,58.30
2023-04-03T23:55:56.878Z,58.20
2023-04-03T23:58:59.218Z,57.90
